createdAt,value
2018-12-21T00:15:15.790Z,6.70
2018-12-21T00:17:43.442Z,6.70
2018-12-21T00:20:10.961Z,6.70
2018-12-21T00:22:38.423Z,6.70
2018-12-21T00:25:06.238Z,6.70
2018-12-21T00:27:33.692Z,6.70
2018-12-21T00:47:23.423Z,6.80
2018-12-21T01:07:12.659Z,6.80
2018-12-21T01:09:40.133Z,6.80
2018-12-21T01:12:10.540Z,6.80
2018-12-21T01:14:38.072Z,6.80
2018-12-21T01:17:05.886Z,6.80
2018-12-21T01:19:33.413Z,6.90
2018-12-21T01:50:57.792Z,7.00
2018-12-21T01:53:25.251Z,7.00
2018-12-21T01:55:52.711Z,7.00
2018-12-21T01:58:20.268Z,7.00
2018-12-21T02:00:47.722Z,7.00
2018-12-21T02:03:15.170Z,6.90
2018-12-21T02:05:43.186Z,6.90
2018-12-21T02:08:10.711Z,6.90
2018-12-21T02:10:38.170Z,6.90
2018-12-21T02:13:05.673Z,6.90
2018-12-21T02:15:33.134Z,6.90
2018-12-21T02:18:00.590Z,7.00
2018-12-21T02:20:28.077Z,7.00
2018-12-21T02:22:55.521Z,7.00
2018-12-21T02:25:22.978Z,6.90
2018-12-21T02:27:50.742Z,7.00
2018-12-21T02:30:18.201Z,7.00
2018-12-21T02:32:45.658Z,7.00
2018-12-21T02:35:13.349Z,7.00
2018-12-21T02:55:02.145Z,6.90
2018-12-21T02:57:29.638Z,6.90
2018-12-21T02:59:57.090Z,6.90
2018-12-21T03:02:24.552Z,7.00
2018-12-21T03:04:52.185Z,7.00
2018-12-21T03:07:19.647Z,7.00
2018-12-21T03:09:47.099Z,7.00
2018-12-21T03:12:14.978Z,7.00
2018-12-21T03:14:42.439Z,6.90
2018-12-21T03:17:09.885Z,7.00
2018-12-21T03:36:58.631Z,6.90
2018-12-21T03:56:47.357Z,7.00
2018-12-21T03:59:14.928Z,7.10
2018-12-21T04:19:03.923Z,7.10
2018-12-21T04:21:31.875Z,7.00
2018-12-21T04:23:59.427Z,7.00
2018-12-21T04:26:26.892Z,7.00
2018-12-21T04:28:54.662Z,7.00
2018-12-21T04:48:43.260Z,6.90
2018-12-21T04:51:10.839Z,6.90
2018-12-21T04:53:38.293Z,7.00
2018-12-21T04:56:05.752Z,7.00
2018-12-21T04:58:33.241Z,7.00
2018-12-21T05:01:00.702Z,7.00
2018-12-21T05:03:28.166Z,7.00
2018-12-21T05:05:55.932Z,7.00
2018-12-21T05:08:23.388Z,6.90
2018-12-21T05:10:50.851Z,6.90
2018-12-21T05:13:18.577Z,6.90
2018-12-21T05:33:07.679Z,6.80
2018-12-21T05:35:35.466Z,6.90
2018-12-21T05:38:02.932Z,7.00
2018-12-21T05:57:52.268Z,6.90
2018-12-21T06:00:19.717Z,6.90
2018-12-21T06:20:08.217Z,6.90
2018-12-21T06:22:35.683Z,6.90
2018-12-21T06:25:03.400Z,6.90
2018-12-21T06:27:31.001Z,6.90
2018-12-21T06:29:58.466Z,6.90
2018-12-21T06:32:25.929Z,6.90
2018-12-21T06:34:53.595Z,6.90
2018-12-21T06:37:21.053Z,6.80
2018-12-21T06:39:48.515Z,6.80
2018-12-21T06:59:37.177Z,6.50
2018-12-21T07:19:26.097Z,6.60
2018-12-21T07:21:53.786Z,6.60
2018-12-21T07:24:21.242Z,6.60
2018-12-21T07:26:48.697Z,6.70
2018-12-21T07:29:16.210Z,6.80
2018-12-21T07:31:43.984Z,6.90
2018-12-21T07:34:11.441Z,6.90
2018-12-21T07:36:39.075Z,6.90
2018-12-21T07:39:07.571Z,6.90
2018-12-21T07:41:35.029Z,6.90
2018-12-21T07:44:02.680Z,6.80
2018-12-21T07:46:30.154Z,6.80
2018-12-21T07:48:57.611Z,6.70
2018-12-21T07:51:25.379Z,6.60
2018-12-21T07:53:52.830Z,6.60
2018-12-21T07:56:20.291Z,6.50
2018-12-21T07:58:47.782Z,6.40
2018-12-21T08:01:15.244Z,6.40
2018-12-21T08:21:04.232Z,6.30
2018-12-21T08:23:31.689Z,6.30
2018-12-21T08:25:59.145Z,6.30
2018-12-21T08:28:26.634Z,6.20
2018-12-21T08:30:54.093Z,6.20
2018-12-21T08:33:21.548Z,6.30
2018-12-21T08:35:49.044Z,6.20
2018-12-21T08:38:16.500Z,6.20
2018-12-21T08:40:43.949Z,6.20
2018-12-21T08:43:11.598Z,6.20
2018-12-21T08:45:39.050Z,6.30
2018-12-21T08:48:06.510Z,6.30
2018-12-21T08:50:34.018Z,6.40
2018-12-21T08:53:01.473Z,6.40
2018-12-21T08:55:28.942Z,6.40
2018-12-21T08:57:56.424Z,6.40
2018-12-21T09:00:23.980Z,6.40
2018-12-21T09:20:12.953Z,6.40
2018-12-21T09:22:40.409Z,6.40
2018-12-21T09:25:07.879Z,6.40
2018-12-21T09:27:35.360Z,6.40
2018-12-21T09:30:03.381Z,6.40
2018-12-21T09:32:30.848Z,6.40
2018-12-21T09:34:58.333Z,6.40
2018-12-21T09:37:25.802Z,6.40
2018-12-21T09:39:53.258Z,6.30
2018-12-21T09:42:20.746Z,6.30
2018-12-21T09:44:52.447Z,6.30
2018-12-21T09:47:17.673Z,6.30
2018-12-21T09:49:45.166Z,6.30
2018-12-21T09:52:12.621Z,6.40
2018-12-21T09:54:40.083Z,6.40
2018-12-21T09:57:07.564Z,6.50
2018-12-21T09:59:35.025Z,6.50
2018-12-21T10:02:02.619Z,6.60
2018-12-21T10:04:30.109Z,6.60
2018-12-21T10:06:57.569Z,6.70
2018-12-21T10:09:25.029Z,6.70
2018-12-21T10:11:52.523Z,6.80
2018-12-21T10:14:19.980Z,6.80
2018-12-21T10:16:47.450Z,6.80
2018-12-21T10:19:14.944Z,6.80
2018-12-21T10:39:05.698Z,6.80
2018-12-21T10:41:33.186Z,6.90
2018-12-21T10:44:00.651Z,6.90
2018-12-21T10:46:28.111Z,6.90
2018-12-21T10:48:55.604Z,6.90
2018-12-21T10:51:23.070Z,7.00
2018-12-21T10:53:50.529Z,6.90
2018-12-21T11:13:39.054Z,7.00
2018-12-21T11:16:06.514Z,7.00
2018-12-21T11:18:33.970Z,7.00
2018-12-21T11:21:01.462Z,7.00
2018-12-21T11:40:50.494Z,6.60
2018-12-21T11:43:18.078Z,6.70
2018-12-21T11:45:45.538Z,6.70
2018-12-21T11:48:13.010Z,6.70
2018-12-21T11:50:40.574Z,6.70
2018-12-21T11:53:08.026Z,6.70
2018-12-21T11:55:35.480Z,6.80
2018-12-21T11:58:02.993Z,6.80
2018-12-21T12:00:30.453Z,6.80
2018-12-21T12:20:20.134Z,7.20
2018-12-21T12:22:47.581Z,7.20
2018-12-21T12:25:15.039Z,7.20
2018-12-21T12:27:42.526Z,7.20
2018-12-21T12:30:10.126Z,7.20
2018-12-21T12:32:37.577Z,7.10
2018-12-21T12:35:06.542Z,7.00
2018-12-21T12:37:34.008Z,7.00
2018-12-21T12:40:01.466Z,6.90
2018-12-21T12:42:28.954Z,7.00
2018-12-21T12:44:56.413Z,6.90
2018-12-21T12:47:23.870Z,6.90
2018-12-21T12:49:51.474Z,6.90
2018-12-21T12:52:18.937Z,7.00
2018-12-21T12:54:46.396Z,7.00
2018-12-21T12:57:14.218Z,7.00
2018-12-21T12:59:41.678Z,7.00
2018-12-21T13:02:09.129Z,7.00
2018-12-21T13:04:37.049Z,7.00
2018-12-21T13:24:25.510Z,6.90
2018-12-21T13:26:53.101Z,6.90
2018-12-21T13:29:20.677Z,6.90
2018-12-21T13:31:48.133Z,6.90
2018-12-21T13:34:15.742Z,6.90
2018-12-21T13:36:43.202Z,6.90
2018-12-21T13:39:10.669Z,6.90
2018-12-21T13:58:59.190Z,6.70
2018-12-21T14:01:26.753Z,6.80
2018-12-21T14:03:54.218Z,6.80
2018-12-21T14:06:21.877Z,6.70
2018-12-21T14:08:49.330Z,6.70
2018-12-21T14:28:37.846Z,6.60
2018-12-21T14:48:27.117Z,6.70
2018-12-21T14:50:54.627Z,6.70
2018-12-21T15:10:43.411Z,6.90
2018-12-21T15:13:10.892Z,6.90
2018-12-21T15:15:38.353Z,6.90
2018-12-21T15:35:27.033Z,7.10
2018-12-21T15:37:54.490Z,7.10
2018-12-21T15:40:21.945Z,7.20
2018-12-21T15:42:49.534Z,7.20
2018-12-21T15:45:16.984Z,7.20
2018-12-21T16:05:07.130Z,7.30
2018-12-21T16:07:34.598Z,7.40
2018-12-21T16:10:02.060Z,7.40
2018-12-21T16:12:29.555Z,7.40
2018-12-21T16:32:18.126Z,7.50
2018-12-21T16:34:45.773Z,7.50
2018-12-21T16:37:13.225Z,7.50
2018-12-21T16:39:40.690Z,7.50
2018-12-21T16:42:08.183Z,7.50
2018-12-21T16:44:35.642Z,7.60
2018-12-21T16:47:03.103Z,7.60
2018-12-21T16:49:30.590Z,7.60
2018-12-21T16:51:58.043Z,7.60
2018-12-21T16:54:25.506Z,7.70
2018-12-21T16:56:53.113Z,7.70
2018-12-21T17:16:42.655Z,7.90
2018-12-21T17:19:10.439Z,7.90
2018-12-21T17:21:38.117Z,7.90
2018-12-21T17:41:27.253Z,8.10
2018-12-21T17:43:54.711Z,8.10
2018-12-21T17:46:22.165Z,8.10
2018-12-21T17:48:49.741Z,8.10
2018-12-21T17:51:17.253Z,8.10
2018-12-21T17:53:44.718Z,8.10
2018-12-21T17:56:12.494Z,8.10
2018-12-21T17:58:39.952Z,8.10
2018-12-21T18:01:07.481Z,8.00
2018-12-21T18:03:35.075Z,8.00
2018-12-21T18:06:02.602Z,8.00
2018-12-21T18:08:30.064Z,8.00
2018-12-21T18:10:57.839Z,8.00
2018-12-21T18:13:25.295Z,8.00
2018-12-21T18:15:52.746Z,8.00
2018-12-21T18:18:25.211Z,8.00
2018-12-21T18:20:49.829Z,7.90
2018-12-21T18:23:17.364Z,8.00
2018-12-21T18:25:45.928Z,8.00
2018-12-21T18:28:17.317Z,8.00
2018-12-21T18:30:44.783Z,8.00
2018-12-21T18:33:12.366Z,8.00
2018-12-21T18:35:39.818Z,8.00
2018-12-21T18:55:28.978Z,8.10
2018-12-21T18:57:56.991Z,8.10
2018-12-21T19:00:24.474Z,8.10
2018-12-21T19:02:52.273Z,8.00
2018-12-21T19:05:19.734Z,8.00
2018-12-21T19:07:47.193Z,8.10
2018-12-21T19:10:14.981Z,8.10
2018-12-21T19:12:42.437Z,8.10
2018-12-21T19:15:09.968Z,8.10
2018-12-21T19:17:37.770Z,8.10
2018-12-21T19:20:08.066Z,8.10
2018-12-21T19:22:35.518Z,8.10
2018-12-21T19:25:04.153Z,8.10
2018-12-21T19:44:53.250Z,8.10
2018-12-21T19:47:20.928Z,8.20
2018-12-21T19:49:48.390Z,8.20
2018-12-21T19:52:15.854Z,8.20
2018-12-21T19:54:43.617Z,8.20
2018-12-21T19:57:11.079Z,8.20
2018-12-21T19:59:38.536Z,8.20
2018-12-21T20:02:06.196Z,8.20
2018-12-21T20:04:33.651Z,8.20
2018-12-21T20:07:01.113Z,8.20
2018-12-21T20:09:28.602Z,8.20
2018-12-21T20:11:56.061Z,8.30
2018-12-21T20:14:23.510Z,8.30
2018-12-21T20:16:51.286Z,8.30
2018-12-21T20:19:18.739Z,8.30
2018-12-21T20:21:46.198Z,8.40
2018-12-21T20:41:35.034Z,8.30
2018-12-21T20:44:02.503Z,8.40
2018-12-21T20:46:29.958Z,8.40
2018-12-21T20:48:57.825Z,8.40
2018-12-21T20:51:25.287Z,8.40
2018-12-21T20:53:52.738Z,8.40
2018-12-21T20:56:20.503Z,8.30
2018-12-21T20:58:48.198Z,8.30
2018-12-21T21:01:15.658Z,8.40
2018-12-21T21:03:43.399Z,8.30
2018-12-21T21:06:10.855Z,8.30
2018-12-21T21:08:38.310Z,8.30
2018-12-21T21:11:05.801Z,8.30
2018-12-21T21:13:33.262Z,8.30
2018-12-21T21:16:00.724Z,8.40
2018-12-21T21:18:28.379Z,8.40
2018-12-21T21:20:55.829Z,8.40
2018-12-21T21:23:23.281Z,8.40
2018-12-21T21:25:50.788Z,8.30
2018-12-21T21:45:38.645Z,8.50
2018-12-21T22:05:27.454Z,8.70
2018-12-21T22:07:54.915Z,8.70
2018-12-21T22:10:22.372Z,8.70
2018-12-21T22:12:50.145Z,8.70
2018-12-21T22:15:17.601Z,8.70
2018-12-21T22:17:45.060Z,8.80
2018-12-21T22:37:34.383Z,8.90
2018-12-21T22:57:23.087Z,9.20
2018-12-21T22:59:50.841Z,9.20
2018-12-21T23:02:18.306Z,9.30
2018-12-21T23:04:45.761Z,9.20
2018-12-21T23:24:35.289Z,9.30
2018-12-21T23:27:02.746Z,9.40
2018-12-21T23:29:30.197Z,9.40
2018-12-21T23:31:57.709Z,9.50
2018-12-21T23:34:25.175Z,9.60
2018-12-21T23:36:52.642Z,9.50
2018-12-21T23:39:20.375Z,9.70
2018-12-21T23:41:47.830Z,9.70
2018-12-21T23:44:15.288Z,9.80
2018-12-21T23:46:42.779Z,9.80
2018-12-21T23:49:10.340Z,9.80
2018-12-21T23:51:37.801Z,9.80
2018-12-21T23:54:05.314Z,10.00
2018-12-21T23:56:32.785Z,9.90
